Time;durP1;ratioP1;P1;durP2;ratioP2;P2;SDS_P1;SDS_P2;PMS_P1;PMS_P2;Temp;Humidity;BMP_temperature;BMP_pressure;BME280_temperature;BME280_humidity;BME280_pressure;Samples;Min_cycle;Max_cycle;Signal;HPM_P1;HPM_P2
2022/08/31 00:05:47;;;;;;;0.83;0.83;;;;;;;19.56;100.00;95318.59;5135106;27;20465;-58
2022/08/31 00:08:16;;;;;;;0.87;0.87;;;;;;;19.70;100.00;95307.59;5135081;27;20513;-57
2022/08/31 00:10:46;;;;;;;0.60;0.60;;;;;;;20.08;100.00;95308.25;5135269;27;20900;-57
2022/08/31 00:13:16;;;;;;;0.50;0.40;;;;;;;20.56;100.00;95313.09;5135216;27;20457;-57
2022/08/31 00:15:45;;;;;;;0.60;0.60;;;;;;;20.70;100.00;95308.97;5135113;27;20418;-57
2022/08/31 00:18:16;;;;;;;0.70;0.60;;;;;;;20.17;100.00;95317.84;5134813;27;20434;-57
2022/08/31 00:20:45;;;;;;;1.10;1.00;;;;;;;19.67;100.00;95317.09;5134825;27;20430;-57
2022/08/31 00:23:16;;;;;;;2.53;1.50;;;;;;;19.26;100.00;95333.09;5134753;27;20509;-57
2022/08/31 00:25:47;;;;;;;11.60;1.17;;;;;;;19.13;100.00;95326.03;5134667;27;20426;-57
2022/08/31 00:28:17;;;;;;;2.10;1.43;;;;;;;19.61;100.00;95332.63;5134234;27;20510;-57
2022/08/31 00:30:46;;;;;;;1.40;0.83;;;;;;;19.55;100.00;95333.16;5133514;27;20940;-57
2022/08/31 00:33:16;;;;;;;0.63;0.63;;;;;;;19.85;100.00;95336.59;5134418;27;20466;-57
2022/08/31 00:35:45;;;;;;;0.73;0.60;;;;;;;19.59;100.00;95331.38;5134606;27;20473;-58
2022/08/31 00:38:14;;;;;;;0.53;0.43;;;;;;;20.15;100.00;95335.44;5134426;27;20551;-58
2022/08/31 00:40:45;;;;;;;0.50;0.30;;;;;;;20.49;100.00;95321.69;5134471;27;20929;-57
2022/08/31 00:43:28;;;;;;;0.53;0.40;;;;;;;20.61;100.00;95310.19;5134354;27;20935;-58
2022/08/31 00:45:57;;;;;;;0.50;0.40;;;;;;;20.90;100.00;95332.38;5134303;27;20951;-57
2022/08/31 00:48:27;;;;;;;0.40;0.30;;;;;;;21.01;100.00;95340.03;5134268;27;20442;-58
2022/08/31 00:50:56;;;;;;;0.50;0.50;;;;;;;20.84;100.00;95332.91;5134235;27;20458;-57
2022/08/31 00:53:25;;;;;;;0.70;0.40;;;;;;;20.87;100.00;95334.97;5134543;27;20514;-57
2022/08/31 00:55:54;;;;;;;0.50;0.40;;;;;;;20.97;100.00;95336.44;5134404;27;20459;-57
2022/08/31 00:58:22;;;;;;;1.07;1.07;;;;;;;20.58;100.00;95338.56;5134042;27;20514;-57
2022/08/31 01:00:51;;;;;;;2.70;0.40;;;;;;;20.61;100.00;95294.81;5134291;27;20846;-57
2022/08/31 01:03:21;;;;;;;11.93;0.50;;;;;;;20.33;100.00;95346.88;5133942;27;20430;-57
2022/08/31 01:05:52;;;;;;;0.50;0.40;;;;;;;20.82;100.00;95349.41;5134200;27;20434;-57
2022/08/31 01:08:21;;;;;;;0.60;0.50;;;;;;;21.12;100.00;95360.06;5133651;27;20876;-57
2022/08/31 01:10:59;;;;;;;0.97;0.70;;;;;;;20.96;100.00;95359.88;5134152;27;20536;-57
2022/08/31 01:13:29;;;;;;;0.70;0.60;;;;;;;21.07;100.00;95358.38;5133729;27;20966;-57
2022/08/31 01:16:03;;;;;;;0.77;0.77;;;;;;;21.20;100.00;95359.94;5133715;27;20449;-58
2022/08/31 01:18:34;;;;;;;0.60;0.40;;;;;;;21.16;100.00;95297.06;5133521;27;20430;-57
2022/08/31 01:21:23;;;;;;;0.83;0.67;;;;;;;21.24;100.00;95357.38;5133606;27;20430;-58
2022/08/31 01:23:55;;;;;;;0.70;0.70;;;;;;;21.21;100.00;95348.06;5133581;27;20521;-58
2022/08/31 01:26:26;;;;;;;0.60;0.50;;;;;;;21.09;100.00;95350.75;5133702;27;20884;-58
2022/08/31 01:28:59;;;;;;;1.47;0.87;;;;;;;21.35;100.00;95361.22;5133475;27;20970;-58
2022/08/31 01:31:31;;;;;;;0.50;0.40;;;;;;;21.48;100.00;95354.69;5133672;27;20494;-58
2022/08/31 01:34:01;;;;;;;0.50;0.40;;;;;;;21.56;100.00;95353.00;5133006;27;20502;-58
2022/08/31 01:36:32;;;;;;;0.83;0.83;;;;;;;21.71;100.00;95352.31;5133548;27;20517;-58
2022/08/31 01:39:02;;;;;;;0.40;0.30;;;;;;;21.55;100.00;95346.06;5133477;27;20513;-58
2022/08/31 01:41:31;;;;;;;2.10;2.00;;;;;;;21.69;100.00;95349.19;5133049;27;20518;-58
2022/08/31 01:43:59;;;;;;;0.60;0.40;;;;;;;21.73;100.00;95348.16;5133174;27;20459;-58
2022/08/31 01:46:28;;;;;;;0.60;0.40;;;;;;;21.69;100.00;95355.38;5133184;27;20459;-58
2022/08/31 01:48:56;;;;;;;0.40;0.30;;;;;;;21.25;100.00;95297.72;5133106;27;20491;-58
2022/08/31 01:51:24;;;;;;;0.63;0.60;;;;;;;21.70;100.00;95353.47;5132966;27;20522;-58
2022/08/31 01:53:54;;;;;;;0.60;0.50;;;;;;;21.29;100.00;95332.91;5133323;27;20791;-58
2022/08/31 01:56:27;;;;;;;0.70;0.40;;;;;;;20.58;100.00;95236.22;5133004;27;20522;-58
2022/08/31 01:58:57;;;;;;;0.70;0.53;;;;;;;20.81;100.00;95355.13;5132878;27;20522;-58
2022/08/31 02:01:29;;;;;;;0.50;0.50;;;;;;;20.21;100.00;95269.53;5132931;27;20455;-58
2022/08/31 02:04:02;;;;;;;1.80;1.70;;;;;;;20.79;100.00;95360.88;5132887;27;20434;-58
2022/08/31 02:06:32;;;;;;;0.83;0.83;;;;;;;21.08;100.00;95357.25;5132909;27;20526;-58
2022/08/31 02:09:01;;;;;;;4.00;1.07;;;;;;;21.17;100.00;95335.59;5132699;27;20984;-58
2022/08/31 02:11:31;;;;;;;0.60;0.50;;;;;;;21.00;100.00;95347.31;5132732;27;20850;-58
2022/08/31 02:14:00;;;;;;;2.20;1.90;;;;;;;20.60;100.00;95357.06;5133139;27;20450;-58
2022/08/31 02:16:28;;;;;;;3.17;1.63;;;;;;;20.43;100.00;95362.63;5132835;27;20509;-58
2022/08/31 02:18:56;;;;;;;1.07;1.03;;;;;;;20.47;100.00;95358.94;5132666;27;20431;-58
2022/08/31 02:21:25;;;;;;;0.60;0.50;;;;;;;20.31;100.00;95359.88;5132797;27;20521;-58
2022/08/31 02:23:54;;;;;;;1.40;1.10;;;;;;;20.22;100.00;95354.53;5132872;28;20551;-58
2022/08/31 02:26:23;;;;;;;4.00;1.10;;;;;;;20.69;100.00;95360.50;5132627;27;20427;-58
2022/08/31 02:28:53;;;;;;;1.83;1.73;;;;;;;20.54;100.00;95369.19;5132821;27;20487;-58
2022/08/31 02:31:22;;;;;;;0.70;0.50;;;;;;;20.42;100.00;95350.25;5132460;28;20518;-58
2022/08/31 02:33:50;;;;;;;1.67;1.57;;;;;;;20.42;100.00;95358.34;5132263;28;20493;-58
2022/08/31 02:36:19;;;;;;;1.53;1.20;;;;;;;20.02;100.00;95301.50;5132600;27;20466;-58
2022/08/31 02:38:47;;;;;;;4.20;0.60;;;;;;;20.61;100.00;95354.06;5132601;28;20970;-58
2022/08/31 02:41:16;;;;;;;0.77;0.77;;;;;;;20.87;100.00;95351.13;5132896;27;20529;-58
2022/08/31 02:43:45;;;;;;;1.33;1.33;;;;;;;20.85;100.00;95343.34;5132488;27;20444;-58
2022/08/31 02:46:15;;;;;;;1.57;1.47;;;;;;;20.81;100.00;95347.84;5132790;28;20419;-58
2022/08/31 02:48:43;;;;;;;8.53;1.00;;;;;;;20.53;100.00;95300.28;5132703;27;20808;-58
2022/08/31 02:51:13;;;;;;;16.23;3.70;;;;;;;20.66;100.00;95345.00;5132738;28;20493;-58
2022/08/31 02:53:41;;;;;;;0.93;0.83;;;;;;;20.58;100.00;95338.56;5132738;27;21061;-58
2022/08/31 02:56:13;;;;;;;1.63;1.10;;;;;;;20.49;100.00;95339.78;5136843;27;20439;-58
2022/08/31 02:58:41;;;;;;;7.80;1.17;;;;;;;20.72;100.00;95339.03;5136436;27;20430;-58
2022/08/31 03:01:10;;;;;;;0.97;0.97;;;;;;;20.40;100.00;95341.72;5136543;27;20510;-59
2022/08/31 03:03:41;;;;;;;0.50;0.50;;;;;;;20.46;100.00;95343.91;5136289;27;20923;-58
2022/08/31 03:06:16;;;;;;;0.50;0.40;;;;;;;20.24;100.00;95338.84;5136223;27;20414;-59
2022/08/31 03:08:44;;;;;;;1.60;1.50;;;;;;;20.14;100.00;95337.31;5136480;27;20467;-58
2022/08/31 03:11:13;;;;;;;0.50;0.40;;;;;;;20.20;100.00;95336.03;5136154;27;20414;-59
2022/08/31 03:13:42;;;;;;;1.47;1.37;;;;;;;20.26;100.00;95336.66;5136001;27;20531;-58
2022/08/31 03:16:13;;;;;;;1.87;1.30;;;;;;;19.98;100.00;95340.94;5136478;27;20426;-58
2022/08/31 03:18:44;;;;;;;1.50;1.50;;;;;;;19.89;100.00;95338.31;5136405;27;20454;-58
2022/08/31 03:21:13;;;;;;;2.00;1.60;;;;;;;20.19;100.00;95326.38;5135919;27;20479;-58
2022/08/31 03:23:42;;;;;;;1.20;1.10;;;;;;;19.70;100.00;95334.50;5135879;27;20434;-58
2022/08/31 03:26:10;;;;;;;1.10;1.07;;;;;;;19.71;100.00;95336.84;5135975;27;20425;-58
2022/08/31 03:28:39;;;;;;;0.87;0.67;;;;;;;19.22;100.00;95248.88;5135754;27;21021;-59
2022/08/31 03:31:08;;;;;;;1.40;1.30;;;;;;;19.65;100.00;95340.84;5136180;27;20461;-58
2022/08/31 03:33:37;;;;;;;1.63;1.53;;;;;;;19.56;100.00;95326.66;5135451;27;21155;-57
2022/08/31 03:36:08;;;;;;;7.93;1.13;;;;;;;19.63;100.00;95335.78;5136108;27;20434;-58
2022/08/31 03:38:36;;;;;;;1.50;1.40;;;;;;;19.35;100.00;95333.88;5135923;27;20795;-58
2022/08/31 03:41:05;;;;;;;0.87;0.83;;;;;;;19.48;100.00;95333.66;5135711;27;20484;-58
2022/08/31 03:43:34;;;;;;;1.00;0.80;;;;;;;19.29;100.00;95335.16;5135541;27;20521;-58
2022/08/31 03:46:03;;;;;;;0.80;0.80;;;;;;;19.34;100.00;95332.28;5135728;27;20461;-58
2022/08/31 03:48:38;;;;;;;1.73;1.53;;;;;;;19.31;100.00;95330.22;5135495;27;20423;-58
2022/08/31 03:51:08;;;;;;;0.87;0.87;;;;;;;19.26;100.00;95327.72;5135537;27;21144;-58
2022/08/31 03:53:37;;;;;;;1.13;1.00;;;;;;;18.75;100.00;95273.09;5135688;27;20471;-58
2022/08/31 03:56:07;;;;;;;6.27;2.13;;;;;;;19.36;100.00;95327.34;5135737;27;20553;-58
2022/08/31 03:58:37;;;;;;;1.23;1.10;;;;;;;19.38;100.00;95325.94;5135452;27;20903;-58
2022/08/31 04:01:06;;;;;;;0.77;0.50;;;;;;;19.70;100.00;95323.72;5135436;27;20994;-59
2022/08/31 04:03:36;;;;;;;1.17;1.10;;;;;;;19.28;100.00;95255.63;5135253;27;21005;-59
2022/08/31 04:06:09;;;;;;;1.70;1.37;;;;;;;19.68;100.00;95323.28;5135129;27;20858;-58
2022/08/31 04:08:38;;;;;;;1.43;1.33;;;;;;;19.66;100.00;95328.19;5135537;27;20862;-58
2022/08/31 04:11:10;;;;;;;2.17;1.40;;;;;;;19.51;100.00;95329.53;5135481;27;20501;-58
2022/08/31 04:13:39;;;;;;;0.70;0.70;;;;;;;19.79;100.00;95321.75;5134893;27;20474;-58
2022/08/31 04:16:11;;;;;;;1.43;1.07;;;;;;;20.08;100.00;95309.06;5135044;27;20426;-57
2022/08/31 04:18:41;;;;;;;2.30;0.73;;;;;;;19.75;100.00;95316.25;5135102;27;20487;-57
2022/08/31 04:21:13;;;;;;;3.60;0.93;;;;;;;20.06;100.00;95313.19;5135317;27;20427;-58
2022/08/31 04:23:42;;;;;;;3.40;0.70;;;;;;;20.20;100.00;95321.78;5134859;27;20514;-58
2022/08/31 04:26:16;;;;;;;1.03;0.90;;;;;;;20.54;100.00;95315.34;5134589;27;20427;-58
2022/08/31 04:28:44;;;;;;;1.27;0.47;;;;;;;20.71;100.00;95315.16;5134658;27;20427;-57
2022/08/31 04:31:13;;;;;;;1.17;1.17;;;;;;;20.60;100.00;95314.78;5134294;27;20419;-57
2022/08/31 04:33:42;;;;;;;0.80;0.80;;;;;;;20.63;100.00;95308.72;5132805;27;20498;-57
2022/08/31 04:36:14;;;;;;;4.63;3.90;;;;;;;20.62;100.00;95309.03;5133382;27;20495;-57
2022/08/31 04:38:43;;;;;;;6.90;1.67;;;;;;;20.73;100.00;95304.81;5133650;27;20517;-57
2022/08/31 04:41:15;;;;;;;2.90;2.70;;;;;;;20.38;100.00;95307.09;5134825;27;20438;-57
2022/08/31 04:43:46;;;;;;;6.50;2.30;;;;;;;20.00;100.00;95301.84;5134341;27;20981;-57
2022/08/31 04:46:16;;;;;;;5.23;2.43;;;;;;;19.47;100.00;95239.91;5134456;27;20462;-58
2022/08/31 04:48:45;;;;;;;1.53;1.43;;;;;;;19.86;100.00;95319.34;5134222;27;20903;-57
2022/08/31 04:51:17;;;;;;;1.43;1.30;;;;;;;20.39;100.00;95311.31;5134221;27;20423;-57
2022/08/31 04:53:46;;;;;;;1.07;0.97;;;;;;;20.46;100.00;95325.06;5134381;27;20494;-57
2022/08/31 04:56:17;;;;;;;4.23;2.30;;;;;;;20.73;100.00;95324.47;5134605;27;20513;-57
2022/08/31 04:58:48;;;;;;;1.13;1.03;;;;;;;21.10;100.00;95316.50;5134038;27;20462;-57
2022/08/31 05:01:18;;;;;;;0.70;0.60;;;;;;;21.31;100.00;95319.88;5134166;27;20431;-57
2022/08/31 05:03:49;;;;;;;1.40;1.30;;;;;;;21.12;100.00;95327.72;5134107;27;20782;-57
2022/08/31 05:06:20;;;;;;;1.80;1.13;;;;;;;21.09;100.00;95329.19;5134072;27;20422;-57
2022/08/31 05:08:52;;;;;;;7.93;1.57;;;;;;;20.46;100.00;95259.66;5134190;27;20427;-58
2022/08/31 05:11:21;;;;;;;1.73;1.63;;;;;;;21.11;100.00;95326.13;5134157;27;20859;-58
2022/08/31 05:13:52;;;;;;;0.50;0.37;;;;;;;21.35;100.00;95328.88;5133844;27;20466;-58
2022/08/31 05:16:21;;;;;;;1.37;0.93;;;;;;;21.25;100.00;95327.38;5133377;27;20431;-58
2022/08/31 05:18:51;;;;;;;1.57;1.47;;;;;;;21.49;100.00;95316.63;5133445;27;20923;-58
2022/08/31 05:21:27;;;;;;;0.80;0.70;;;;;;;21.32;100.00;95329.53;5133979;27;20454;-58
2022/08/31 05:23:56;;;;;;;0.50;0.30;;;;;;;21.75;100.00;95331.66;5133816;27;20890;-58
2022/08/31 05:26:28;;;;;;;1.70;0.70;;;;;;;21.09;100.00;95331.88;5133814;27;20788;-57
2022/08/31 05:28:57;;;;;;;1.10;0.63;;;;;;;20.82;100.00;95338.63;5133523;27;20431;-58
2022/08/31 05:31:29;;;;;;;1.03;1.03;;;;;;;21.23;100.00;95332.34;5133720;27;20462;-57
2022/08/31 05:33:59;;;;;;;0.60;0.60;;;;;;;21.47;100.00;95335.06;5133202;27;20535;-56
2022/08/31 05:36:29;;;;;;;0.50;0.47;;;;;;;21.85;100.00;95329.31;5133411;27;20815;-58
2022/08/31 05:38:58;;;;;;;0.67;0.63;;;;;;;22.17;100.00;95314.06;5133305;27;20474;-57
2022/08/31 05:41:30;;;;;;;0.60;0.53;;;;;;;22.32;100.00;95326.81;5133343;27;20438;-58
2022/08/31 05:43:58;;;;;;;0.60;0.60;;;;;;;22.46;100.00;95323.75;5133230;27;20431;-57
2022/08/31 05:46:28;;;;;;;1.90;0.83;;;;;;;22.52;100.00;95323.13;5133674;27;20509;-57
2022/08/31 05:48:57;;;;;;;0.70;0.70;;;;;;;22.37;100.00;95326.59;5133263;27;20427;-56
2022/08/31 05:51:26;;;;;;;0.80;0.50;;;;;;;22.21;100.00;95333.84;5133470;27;20426;-56
2022/08/31 05:53:58;;;;;;;0.50;0.50;;;;;;;22.16;100.00;95322.50;5133355;27;20884;-57
2022/08/31 05:56:27;;;;;;;0.60;0.40;;;;;;;22.07;100.00;95325.31;5133389;27;20458;-57
2022/08/31 05:58:57;;;;;;;0.63;0.47;;;;;;;22.23;100.00;95320.00;5132979;27;20488;-57
2022/08/31 06:01:29;;;;;;;0.50;0.30;;;;;;;22.04;100.00;95285.50;5133122;27;20513;-57
2022/08/31 06:03:58;;;;;;;0.60;0.50;;;;;;;22.49;100.00;95320.38;5132985;27;20439;-56
2022/08/31 06:06:27;;;;;;;0.80;0.70;;;;;;;22.43;100.00;95319.81;5133373;27;20828;-57
2022/08/31 06:08:58;;;;;;;0.53;0.53;;;;;;;22.30;100.00;95320.97;5132994;27;20437;-57
2022/08/31 06:11:29;;;;;;;1.00;0.50;;;;;;;22.22;100.00;95321.91;5133253;27;20455;-57
2022/08/31 06:13:59;;;;;;;0.53;0.43;;;;;;;22.57;100.00;95319.41;5133199;27;20578;-57
2022/08/31 06:16:30;;;;;;;0.60;0.50;;;;;;;22.70;100.00;95320.94;5132912;27;20972;-58
2022/08/31 06:19:02;;;;;;;1.63;1.33;;;;;;;22.83;100.00;95327.06;5133246;27;20477;-57
2022/08/31 06:21:33;;;;;;;0.50;0.40;;;;;;;23.07;100.00;95316.13;5133142;27;20504;-57
2022/08/31 06:24:04;;;;;;;0.50;0.30;;;;;;;23.29;100.00;95326.34;5132836;28;20855;-57
2022/08/31 06:26:34;;;;;;;0.57;0.53;;;;;;;23.58;100.00;95322.44;5132892;28;20930;-57
2022/08/31 06:29:05;;;;;;;0.60;0.50;;;;;;;23.42;100.00;95325.16;5133853;27;20466;-58
2022/08/31 06:31:36;;;;;;;0.50;0.40;;;;;;;23.19;100.00;95324.16;5137046;27;20518;-57
2022/08/31 06:34:07;;;;;;;0.60;0.60;;;;;;;23.13;100.00;95258.75;5136235;27;20494;-57
2022/08/31 06:36:35;;;;;;;2.00;0.60;;;;;;;24.09;100.00;95328.63;5137267;27;20457;-57
2022/08/31 06:39:05;;;;;;;1.53;0.73;;;;;;;24.27;96.70;95327.06;5136823;27;20431;-58
2022/08/31 06:41:36;;;;;;;1.13;1.13;;;;;;;23.88;100.00;95326.22;5136826;27;20466;-58
2022/08/31 06:44:06;;;;;;;2.17;2.07;;;;;;;24.36;100.00;95336.56;5136861;27;20514;-57
2022/08/31 06:46:35;;;;;;;0.90;0.90;;;;;;;25.02;90.20;95317.31;5136871;27;20427;-57
2022/08/31 06:49:04;;;;;;;1.50;1.07;;;;;;;24.76;92.52;95325.34;5136818;27;20427;-57
2022/08/31 06:51:37;;;;;;;0.80;0.70;;;;;;;25.26;86.14;95318.91;5136929;27;20423;-57
2022/08/31 06:54:09;;;;;;;0.90;0.90;;;;;;;25.66;84.40;95299.41;5136434;27;20948;-57
2022/08/31 06:56:58;;;;;;;1.03;0.67;;;;;;;25.98;81.24;95308.03;5136334;27;20434;-58
2022/08/31 06:59:27;;;;;;;3.90;1.20;;;;;;;26.02;77.03;95308.84;5136411;27;20430;-58
2022/08/31 07:01:58;;;;;;;1.17;0.90;;;;;;;26.03;80.01;95305.00;5136949;27;20422;-58
2022/08/31 07:04:27;;;;;;;0.80;0.60;;;;;;;25.83;84.26;95310.53;5136761;27;20430;-59
2022/08/31 07:06:55;;;;;;;0.70;0.70;;;;;;;26.32;79.14;95310.44;5136498;27;20419;-58
2022/08/31 07:09:26;;;;;;;0.80;0.80;;;;;;;26.82;73.95;95309.13;5136241;27;20459;-58
2022/08/31 07:11:54;;;;;;;1.10;1.00;;;;;;;27.27;69.79;95318.13;5136120;27;20434;-57
2022/08/31 07:14:25;;;;;;;2.10;1.57;;;;;;;26.48;72.10;95308.34;5136106;27;20521;-57
2022/08/31 07:16:56;;;;;;;1.63;1.53;;;;;;;27.20;67.89;95313.38;5136180;27;20483;-55
2022/08/31 07:19:25;;;;;;;0.60;0.57;;;;;;;27.43;67.68;95316.72;5136054;27;20431;-57
2022/08/31 07:21:55;;;;;;;1.27;0.80;;;;;;;27.21;68.91;95314.94;5136082;27;20426;-57
2022/08/31 07:24:29;;;;;;;1.53;1.17;;;;;;;27.21;64.86;95293.19;5136025;27;20427;-57
2022/08/31 07:27:01;;;;;;;0.50;0.40;;;;;;;27.20;67.49;95316.09;5136218;27;20784;-57
2022/08/31 07:29:38;;;;;;;0.60;0.40;;;;;;;28.18;61.01;95304.44;5135666;27;20499;-58
2022/08/31 07:32:08;;;;;;;1.07;0.73;;;;;;;28.54;58.15;95303.41;5135982;27;20425;-57
2022/08/31 07:34:37;;;;;;;0.90;0.90;;;;;;;28.26;57.11;95298.59;5135514;27;20502;-58
2022/08/31 07:42:42;;;;;;;0.63;0.63;;;;;;;28.45;58.22;95221.19;5135946;27;20781;-57
2022/08/31 07:45:21;;;;;;;3.33;0.50;;;;;;;28.85;58.24;95278.22;5135607;27;20922;-58
2022/08/31 07:47:51;;;;;;;0.47;0.43;;;;;;;29.37;57.66;95275.97;5135966;27;20504;-57
2022/08/31 07:50:20;;;;;;;1.43;0.90;;;;;;;29.08;54.42;95277.84;5135810;27;20852;-57
2022/08/31 07:52:53;;;;;;;0.80;0.80;;;;;;;28.99;56.91;95273.94;5135551;27;20457;-57
2022/08/31 07:55:24;;;;;;;3.67;1.03;;;;;;;28.76;58.55;95261.44;5135283;27;20481;-57
2022/08/31 07:57:54;;;;;;;0.90;0.90;;;;;;;28.39;58.73;95266.34;5135327;27;20465;-57
2022/08/31 08:00:25;;;;;;;0.60;0.50;;;;;;;29.50;58.59;95260.72;5135619;27;20521;-57
2022/08/31 08:02:54;;;;;;;2.17;2.07;;;;;;;29.41;52.85;95187.41;5135521;27;20482;-58
2022/08/31 08:05:25;;;;;;;0.50;0.40;;;;;;;30.41;49.88;95242.59;5135323;27;20763;-58
2022/08/31 08:08:04;;;;;;;0.40;0.30;;;;;;;30.72;51.13;95241.63;5135162;27;20419;-58
2022/08/31 08:10:47;;;;;;;0.60;0.60;;;;;;;30.87;47.06;95240.38;5135498;27;20438;-58
2022/08/31 08:13:21;;;;;;;1.60;1.13;;;;;;;30.99;45.81;95239.94;5135351;27;20426;-58
2022/08/31 08:15:50;;;;;;;1.03;1.00;;;;;;;31.06;46.92;95237.16;5135213;27;20531;-58
2022/08/31 08:18:20;;;;;;;0.60;0.60;;;;;;;31.66;43.63;95227.66;5134973;27;20486;-58
2022/08/31 08:20:50;;;;;;;0.83;0.83;;;;;;;32.20;43.18;95237.69;5134893;27;20422;-58
2022/08/31 08:23:19;;;;;;;0.93;0.93;;;;;;;31.23;45.58;95228.03;5134942;27;20434;-58
2022/08/31 08:25:59;;;;;;;1.53;0.60;;;;;;;31.69;44.65;95218.63;5134985;27;20465;-59
2022/08/31 08:28:30;;;;;;;0.40;0.33;;;;;;;31.74;42.55;95227.19;5134948;27;20510;-59
2022/08/31 08:31:12;;;;;;;0.50;0.33;;;;;;;32.17;44.77;95215.78;5134781;27;20935;-59
2022/08/31 08:33:40;;;;;;;0.70;0.70;;;;;;;31.69;44.86;95226.88;5134442;27;20476;-58
2022/08/31 08:36:09;;;;;;;1.60;1.60;;;;;;;32.24;42.66;95212.94;5134766;27;20505;-58
2022/08/31 08:38:42;;;;;;;0.67;0.50;;;;;;;32.36;43.68;95215.19;5134341;27;20461;-58
2022/08/31 08:41:15;;;;;;;0.80;0.80;;;;;;;32.57;45.14;95215.69;5134431;27;20433;-58
2022/08/31 08:43:47;;;;;;;1.13;0.70;;;;;;;33.45;41.32;95205.34;5134139;27;21010;-58
2022/08/31 08:46:26;;;;;;;0.73;0.70;;;;;;;32.99;39.56;95208.03;5134780;27;20417;-59
2022/08/31 08:49:18;;;;;;;0.50;0.50;;;;;;;33.58;39.38;95200.03;5134352;27;20856;-59
2022/08/31 08:51:51;;;;;;;0.60;0.60;;;;;;;33.61;36.10;95199.97;5133544;27;20914;-59
2022/08/31 08:54:29;;;;;;;0.50;0.50;;;;;;;34.17;37.00;95194.63;5134162;27;20454;-59
2022/08/31 08:57:03;;;;;;;0.50;0.50;;;;;;;35.00;33.90;95191.25;5134007;27;20558;-59
2022/08/31 08:59:31;;;;;;;1.60;0.80;;;;;;;34.88;34.53;95189.16;5134563;27;20222;-59
2022/08/31 09:02:03;;;;;;;0.40;0.37;;;;;;;35.58;33.09;95185.91;5134659;27;20502;-59
2022/08/31 09:04:49;;;;;;;0.60;0.43;;;;;;;34.94;34.94;95184.69;5134493;27;20437;-59
2022/08/31 09:07:36;;;;;;;1.20;1.10;;;;;;;34.44;35.53;95175.97;5134319;27;20189;-59
2022/08/31 09:10:11;;;;;;;1.13;1.10;;;;;;;34.55;35.96;95171.03;5134306;27;20595;-59
2022/08/31 09:12:56;;;;;;;0.73;0.73;;;;;;;33.98;37.01;95167.88;5133958;27;20270;-59
2022/08/31 09:15:54;;;;;;;0.97;0.80;;;;;;;34.06;33.23;95178.31;5133744;27;20702;-59
2022/08/31 09:18:34;;;;;;;0.83;0.83;;;;;;;34.32;33.54;95173.88;5127668;27;20198;-59
2022/08/31 09:21:18;;;;;;;0.50;0.50;;;;;;;35.86;31.95;95170.59;5133798;27;20183;-59
2022/08/31 09:23:53;;;;;;;1.63;1.53;;;;;;;36.52;32.17;95164.41;5133535;27;20796;-58
2022/08/31 09:26:26;;;;;;;1.20;1.20;;;;;;;36.58;31.48;95160.69;5134096;27;20244;-58
2022/08/31 09:28:57;;;;;;;1.60;0.90;;;;;;;35.14;31.99;95161.84;5133996;27;20215;-58
2022/08/31 09:31:33;;;;;;;0.50;0.50;;;;;;;36.14;31.26;95158.81;5134084;27;20183;-58
2022/08/31 09:34:03;;;;;;;0.50;0.43;;;;;;;36.11;31.81;95160.44;5133018;27;20313;-58
2022/08/31 09:36:39;;;;;;;0.50;0.50;;;;;;;36.44;30.20;95152.00;5133720;27;20255;-58
2022/08/31 09:39:17;;;;;;;1.10;1.00;;;;;;;34.99;30.53;95151.13;5133585;27;20198;-58
2022/08/31 09:41:46;;;;;;;0.67;0.50;;;;;;;35.53;30.71;95150.59;5133575;27;20232;-58
2022/08/31 09:44:40;;;;;;;1.27;0.70;;;;;;;35.29;31.48;95133.50;5133455;27;20280;-59
2022/08/31 09:47:39;;;;;;;0.70;0.70;;;;;;;35.58;30.88;95128.81;5133801;27;20254;-56
2022/08/31 09:50:09;;;;;;;0.87;0.70;;;;;;;36.02;30.59;95107.91;5133358;27;20191;-56
2022/08/31 09:55:27;;;;;;;0.60;0.50;;;;;;;35.53;29.24;95131.31;5133415;27;20190;-55
2022/08/31 09:57:57;;;;;;;2.20;0.63;;;;;;;36.29;29.22;95135.88;5133177;27;20253;-56
2022/08/31 10:00:39;;;;;;;1.10;1.10;;;;;;;35.46;29.97;95123.97;5133585;27;20191;-56
2022/08/31 10:03:12;;;;;;;0.70;0.70;;;;;;;35.18;31.13;95129.44;5132952;27;20277;-56
2022/08/31 10:05:43;;;;;;;0.50;0.50;;;;;;;35.47;30.21;95122.00;5133276;27;20274;-56
2022/08/31 10:08:26;;;;;;;0.90;0.80;;;;;;;35.08;29.76;95120.25;5133395;27;20195;-55
2022/08/31 10:10:57;;;;;;;0.60;0.60;;;;;;;36.07;29.43;95107.38;5133038;27;20275;-55
2022/08/31 10:13:35;;;;;;;0.40;0.40;;;;;;;36.08;29.08;95114.41;5133032;27;20629;-56
2022/08/31 10:16:13;;;;;;;0.82;0.82;;;;;;;35.93;28.78;95104.19;5132957;27;20652;-56
2022/08/31 10:18:54;;;;;;;0.70;0.70;;;;;;;35.96;30.25;95114.34;5132853;27;20190;-55
2022/08/31 10:21:30;;;;;;;0.50;0.50;;;;;;;37.17;28.75;95099.19;5132916;27;20286;-55
2022/08/31 10:24:19;;;;;;;0.77;0.77;;;;;;;36.17;28.76;95089.72;5132706;27;20282;-55
2022/08/31 10:26:55;;;;;;;0.52;0.52;;;;;;;37.14;28.95;95080.72;5132938;28;20183;-55
2022/08/31 10:29:32;;;;;;;0.45;0.45;;;;;;;36.53;29.19;95094.19;5133110;28;20214;-56
2022/08/31 10:32:09;;;;;;;1.65;1.55;;;;;;;36.74;28.36;95097.03;5132763;28;20233;-55
2022/08/31 10:37:35;;;;;;;0.50;0.50;;;;;;;37.31;28.17;95084.13;5132921;28;20268;-55
2022/08/31 10:40:09;;;;;;;0.68;0.45;;;;;;;38.41;27.64;95078.16;5132312;28;20187;-55
2022/08/31 10:42:41;;;;;;;6.43;0.60;;;;;;;38.06;28.05;95074.72;5133021;27;20207;-56
2022/08/31 10:45:15;;;;;;;0.50;0.50;;;;;;;38.44;26.55;95078.03;5132562;28;20278;-56
2022/08/31 10:47:50;;;;;;;0.90;0.90;;;;;;;38.58;26.47;95063.59;5133034;28;20179;-57
2022/08/31 10:50:27;;;;;;;0.57;0.50;;;;;;;38.51;26.14;95074.19;5132888;28;20199;-55
2022/08/31 10:53:12;;;;;;;0.65;0.60;;;;;;;38.00;27.44;95057.94;5132454;28;20191;-55
2022/08/31 10:55:48;;;;;;;0.43;0.43;;;;;;;38.08;28.29;95061.97;5132971;27;20636;-57
2022/08/31 10:58:26;;;;;;;1.38;0.98;;;;;;;37.94;30.22;95057.00;5132452;28;20342;-56
2022/08/31 11:01:03;;;;;;;0.47;0.45;;;;;;;36.99;30.58;95051.28;5132552;28;20231;-56
2022/08/31 11:04:07;;;;;;;0.73;0.73;;;;;;;36.82;30.81;95053.38;5132691;28;20192;-55
2022/08/31 11:06:40;;;;;;;2.35;0.60;;;;;;;37.66;30.49;95051.69;5132776;28;20228;-55
2022/08/31 11:09:18;;;;;;;0.50;0.40;;;;;;;38.19;29.67;95058.03;5132749;28;20266;-55
2022/08/31 11:11:56;;;;;;;0.63;0.60;;;;;;;37.99;30.40;95056.41;5132397;28;20651;-55
2022/08/31 11:14:43;;;;;;;1.30;1.23;;;;;;;36.18;30.64;95065.66;5132246;27;20226;-56
2022/08/31 11:17:31;;;;;;;1.50;0.82;;;;;;;36.06;30.76;95075.44;5136209;27;20695;-56
2022/08/31 11:20:26;;;;;;;2.70;0.68;;;;;;;35.55;31.36;95060.75;5136144;27;20227;-56
2022/08/31 11:23:26;;;;;;;1.35;0.50;;;;;;;36.08;30.96;95064.75;5136157;27;20275;-56
2022/08/31 11:26:25;;;;;;;0.70;0.70;;;;;;;36.66;30.08;95056.28;5133582;27;20211;-56
2022/08/31 11:28:58;;;;;;;0.77;0.77;;;;;;;35.90;31.29;95055.44;5136095;27;20226;-56
2022/08/31 11:31:30;;;;;;;2.05;0.60;;;;;;;36.12;31.62;95056.38;5136366;27;20307;-57
2022/08/31 11:34:11;;;;;;;1.30;1.20;;;;;;;35.00;32.07;95053.50;5135743;27;20284;-56
2022/08/31 11:36:52;;;;;;;0.80;0.80;;;;;;;35.05;32.52;95042.00;5135956;27;20267;-56
2022/08/31 11:39:35;;;;;;;0.50;0.50;;;;;;;35.07;31.50;95047.06;5136148;27;20538;-56
2022/08/31 11:42:11;;;;;;;0.75;0.75;;;;;;;36.05;30.55;95046.31;5135723;27;20655;-56
2022/08/31 11:45:05;;;;;;;0.60;0.60;;;;;;;35.14;30.59;95043.34;5135773;27;20259;-57
2022/08/31 11:47:43;;;;;;;1.00;1.00;;;;;;;34.70;31.53;95037.34;5135612;27;20240;-57
2022/08/31 11:50:27;;;;;;;0.40;0.30;;;;;;;35.87;30.66;95035.03;5135457;27;20233;-56
2022/08/31 11:53:00;;;;;;;1.47;1.37;;;;;;;36.39;28.91;95031.09;5135233;27;20190;-56
2022/08/31 11:55:30;;;;;;;0.80;0.80;;;;;;;35.42;30.33;95037.84;5135586;27;20243;-56
2022/08/31 11:58:25;;;;;;;1.15;1.05;;;;;;;34.33;32.22;95035.09;5134342;27;20253;-57
2022/08/31 12:00:58;;;;;;;0.60;0.60;;;;;;;34.63;31.08;95048.56;5135232;27;20227;-56
2022/08/31 12:03:44;;;;;;;0.43;0.40;;;;;;;35.44;30.75;95032.69;5135323;27;20282;-55
2022/08/31 12:06:46;;;;;;;1.13;1.13;;;;;;;35.93;29.58;95043.50;5135397;27;20235;-56
2022/08/31 12:09:39;;;;;;;1.50;0.87;;;;;;;34.89;31.76;95060.50;5134996;27;20229;-56
2022/08/31 12:12:21;;;;;;;2.00;0.57;;;;;;;34.29;31.73;95081.16;5132522;27;20283;-57